Time;durP1;ratioP1;P1;durP2;ratioP2;P2;SDS_P1;SDS_P2;PMS_P1;PMS_P2;Temp;Humidity;BMP_temperature;BMP_pressure;BME280_temperature;BME280_humidity;BME280_pressure;Samples;Min_cycle;Max_cycle;Signal;HPM_P1;HPM_P2
2023/09/26 00:00:19;;;;;;;8.80;7.15;;;12.40;99.90;;;;;;5047621;28;20053;-41
2023/09/26 00:02:49;;;;;;;9.55;7.28;;;12.40;99.90;;;;;;5045743;28;20034;-39
2023/09/26 00:05:19;;;;;;;10.63;7.68;;;12.40;99.90;;;;;;5048535;28;20080;-40
2023/09/26 00:07:48;;;;;;;8.98;7.05;;;12.40;99.90;;;;;;5047893;28;20116;-37
2023/09/26 00:10:16;;;;;;;8.98;7.22;;;12.40;99.90;;;;;;5043428;28;20047;-41
2023/09/26 00:12:44;;;;;;;11.10;7.57;;;12.40;99.90;;;;;;5047031;28;20086;-39
2023/09/26 00:15:11;;;;;;;8.82;6.72;;;12.30;99.90;;;;;;5051839;28;20521;-39
2023/09/26 00:17:39;;;;;;;8.80;6.80;;;12.30;99.90;;;;;;5043786;28;20065;-40
2023/09/26 00:20:10;;;;;;;9.15;6.82;;;12.30;99.90;;;;;;5038587;28;20445;-40
2023/09/26 00:22:37;;;;;;;8.25;6.80;;;12.30;99.90;;;;;;5041531;28;20051;-38
2023/09/26 00:25:06;;;;;;;10.10;7.40;;;12.30;99.90;;;;;;5044467;28;20049;-39
2023/09/26 00:27:33;;;;;;;8.57;7.07;;;12.30;99.90;;;;;;5037933;28;20072;-41
2023/09/26 00:30:01;;;;;;;11.10;7.75;;;12.30;99.90;;;;;;5035794;28;20037;-40
2023/09/26 00:32:30;;;;;;;10.35;7.57;;;12.30;99.90;;;;;;5048410;28;20345;-39
2023/09/26 00:34:58;;;;;;;8.45;6.78;;;12.30;99.90;;;;;;5045185;28;20049;-42
2023/09/26 00:37:25;;;;;;;9.50;7.30;;;12.30;99.90;;;;;;5050881;28;20049;-41
2023/09/26 00:39:53;;;;;;;9.48;7.10;;;12.30;99.90;;;;;;5054122;28;20108;-39
2023/09/26 00:42:21;;;;;;;11.38;7.38;;;12.30;99.90;;;;;;5043671;28;20115;-40
2023/09/26 00:44:48;;;;;;;9.30;7.15;;;12.30;99.90;;;;;;5045792;28;20049;-38
2023/09/26 00:47:16;;;;;;;11.48;8.10;;;12.30;99.90;;;;;;5039093;28;20529;-39
2023/09/26 00:49:44;;;;;;;10.98;8.40;;;12.30;99.90;;;;;;5047852;28;20143;-38
2023/09/26 00:52:12;;;;;;;13.60;8.23;;;12.30;99.90;;;;;;5041301;28;21642;-40
2023/09/26 00:54:40;;;;;;;12.95;9.23;;;12.20;99.90;;;;;;5046054;28;20068;-40
2023/09/26 00:57:09;;;;;;;10.02;7.97;;;12.20;99.90;;;;;;5045085;28;20148;-40
2023/09/26 00:59:39;;;;;;;10.90;7.35;;;12.10;99.90;;;;;;5045323;28;20095;-41
2023/09/26 01:02:06;;;;;;;14.95;7.97;;;12.10;99.90;;;;;;5038247;28;20101;-39
2023/09/26 01:04:34;;;;;;;9.60;7.82;;;12.10;99.90;;;;;;5046502;28;20057;-38
2023/09/26 01:07:03;;;;;;;9.82;6.78;;;12.00;99.90;;;;;;5038550;28;20041;-41
2023/09/26 01:09:30;;;;;;;10.52;7.18;;;12.00;99.90;;;;;;5048702;28;20052;-39
2023/09/26 01:11:58;;;;;;;8.95;6.60;;;12.00;99.90;;;;;;5047063;28;20486;-39
2023/09/26 01:14:25;;;;;;;9.50;6.68;;;12.00;99.90;;;;;;5041632;28;20113;-37
2023/09/26 01:16:55;;;;;;;9.27;6.95;;;11.90;99.90;;;;;;5049013;28;20110;-39
2023/09/26 01:19:23;;;;;;;8.83;7.37;;;11.90;99.90;;;;;;5038750;28;20057;-42
2023/09/26 01:21:52;;;;;;;10.32;6.80;;;11.80;99.90;;;;;;5041227;28;20049;-38
2023/09/26 01:24:19;;;;;;;10.95;7.43;;;11.80;99.90;;;;;;5048453;28;20053;-40
2023/09/26 01:26:46;;;;;;;10.60;6.85;;;11.80;99.90;;;;;;5047440;28;20098;-40
2023/09/26 01:29:14;;;;;;;8.90;6.30;;;11.80;99.90;;;;;;5050567;28;20116;-43
2023/09/26 01:31:43;;;;;;;11.15;7.35;;;11.80;99.90;;;;;;5054731;28;20060;-40
2023/09/26 01:34:10;;;;;;;10.18;6.75;;;11.80;99.90;;;;;;5049144;28;20049;-40
2023/09/26 01:36:37;;;;;;;11.10;6.95;;;11.80;99.90;;;;;;5055043;28;20464;-38
2023/09/26 01:39:05;;;;;;;10.00;7.57;;;11.70;99.90;;;;;;5050465;28;20079;-42
2023/09/26 01:41:33;;;;;;;9.32;7.57;;;11.70;99.90;;;;;;5040995;28;20394;-40
2023/09/26 01:44:00;;;;;;;11.00;7.32;;;11.70;99.90;;;;;;5052173;28;20057;-39
2023/09/26 01:46:27;;;;;;;10.85;8.32;;;11.70;99.90;;;;;;5045576;28;20049;-43
2023/09/26 01:48:55;;;;;;;10.18;7.68;;;11.70;99.90;;;;;;5052919;28;20064;-38
2023/09/26 01:51:22;;;;;;;9.00;7.10;;;11.60;99.90;;;;;;5048850;28;20096;-38
2023/09/26 01:53:50;;;;;;;10.95;6.72;;;11.60;99.90;;;;;;5043833;28;20481;-38
2023/09/26 01:56:17;;;;;;;8.70;7.03;;;11.60;99.90;;;;;;5050176;28;20060;-39
2023/09/26 01:58:44;;;;;;;8.63;7.25;;;11.50;99.90;;;;;;5042721;28;20056;-39
2023/09/26 02:01:12;;;;;;;9.85;7.07;;;11.50;99.90;;;;;;5044443;28;20049;-40
2023/09/26 02:03:39;;;;;;;7.38;6.18;;;11.40;99.90;;;;;;5045153;28;20581;-39
2023/09/26 02:06:06;;;;;;;9.68;6.50;;;11.40;99.90;;;;;;5041531;28;20506;-40
2023/09/26 02:08:34;;;;;;;7.93;6.40;;;11.40;99.90;;;;;;5046238;28;20048;-39
2023/09/26 02:11:01;;;;;;;9.88;7.07;;;11.40;99.90;;;;;;5043194;28;20075;-37
2023/09/26 02:13:28;;;;;;;8.88;6.75;;;11.40;99.90;;;;;;5050329;28;20053;-38
2023/09/26 02:15:56;;;;;;;10.88;7.28;;;11.40;99.90;;;;;;5055306;28;20044;-38
2023/09/26 02:18:24;;;;;;;9.07;7.63;;;11.40;99.90;;;;;;5045258;28;20490;-38
2023/09/26 02:20:52;;;;;;;10.70;8.13;;;11.40;99.90;;;;;;5048670;28;20052;-37
2023/09/26 02:23:19;;;;;;;10.23;7.45;;;11.40;99.90;;;;;;5039915;28;20320;-38
2023/09/26 02:25:51;;;;;;;10.43;7.35;;;11.40;99.90;;;;;;5045302;28;20053;-37
2023/09/26 02:28:20;;;;;;;11.07;6.82;;;11.40;99.90;;;;;;5049896;28;20455;-37
2023/09/26 02:30:47;;;;;;;9.52;7.68;;;11.40;99.90;;;;;;5048806;28;20040;-41
2023/09/26 02:33:15;;;;;;;10.25;7.70;;;11.30;99.90;;;;;;5051618;28;20048;-42
2023/09/26 02:35:42;;;;;;;10.52;7.75;;;11.30;99.90;;;;;;5041712;28;20092;-40
2023/09/26 02:38:09;;;;;;;9.93;7.03;;;11.30;99.90;;;;;;5052131;28;20049;-40
2023/09/26 02:40:37;;;;;;;11.55;8.05;;;11.20;99.90;;;;;;5051082;28;20370;-40
2023/09/26 02:43:04;;;;;;;9.65;7.72;;;11.20;99.90;;;;;;5050443;28;20052;-40
2023/09/26 02:45:31;;;;;;;10.68;7.35;;;11.20;99.90;;;;;;5044897;28;20041;-39
2023/09/26 02:47:59;;;;;;;12.60;8.98;;;11.20;99.90;;;;;;5047219;28;20402;-39
2023/09/26 02:50:27;;;;;;;10.43;8.35;;;11.20;99.90;;;;;;5036701;28;20447;-38
2023/09/26 02:52:54;;;;;;;10.20;7.65;;;11.20;99.90;;;;;;5043493;28;20454;-37
2023/09/26 02:55:22;;;;;;;10.27;7.15;;;11.10;99.90;;;;;;5043816;28;20069;-37
2023/09/26 02:57:50;;;;;;;10.85;7.45;;;11.10;99.90;;;;;;5041178;28;20057;-40
2023/09/26 03:00:17;;;;;;;9.63;7.78;;;11.10;99.90;;;;;;5041534;28;20057;-40
2023/09/26 03:02:46;;;;;;;12.73;8.85;;;11.10;99.90;;;;;;5049461;28;20048;-39
2023/09/26 03:05:15;;;;;;;11.73;8.93;;;11.10;99.90;;;;;;5048452;28;20526;-40
2023/09/26 03:07:43;;;;;;;11.95;9.30;;;11.00;99.90;;;;;;5049496;28;20122;-40
2023/09/26 03:10:11;;;;;;;13.23;10.20;;;11.00;99.90;;;;;;5049782;28;20060;-39
2023/09/26 03:12:43;;;;;;;13.43;10.45;;;11.00;99.90;;;;;;5047191;28;20064;-37
2023/09/26 03:15:11;;;;;;;12.35;10.10;;;10.90;99.90;;;;;;5057000;28;20045;-40
2023/09/26 03:17:38;;;;;;;13.48;9.40;;;10.90;99.90;;;;;;5057023;28;20045;-38
2023/09/26 03:20:08;;;;;;;15.10;10.50;;;10.90;99.90;;;;;;5050359;28;20521;-38
2023/09/26 03:22:36;;;;;;;11.85;9.95;;;10.90;99.90;;;;;;5051649;28;20045;-41
2023/09/26 03:25:05;;;;;;;11.75;9.88;;;10.90;99.90;;;;;;5039317;28;20041;-38
2023/09/26 03:27:33;;;;;;;11.90;9.35;;;10.90;99.90;;;;;;5036677;28;20049;-41
2023/09/26 03:30:00;;;;;;;12.52;10.13;;;10.80;99.90;;;;;;5045812;28;20048;-40
2023/09/26 03:32:28;;;;;;;13.20;8.77;;;10.90;99.90;;;;;;5047664;28;20056;-40
2023/09/26 03:34:55;;;;;;;11.02;8.88;;;10.90;99.90;;;;;;5034271;28;20067;-41
2023/09/26 03:37:24;;;;;;;14.50;8.82;;;10.90;99.90;;;;;;5042908;28;20037;-38
2023/09/26 03:39:51;;;;;;;12.25;9.23;;;11.00;99.90;;;;;;5047030;28;20122;-39
2023/09/26 03:42:19;;;;;;;12.57;9.18;;;11.10;99.90;;;;;;5048430;28;20048;-40
2023/09/26 03:44:46;;;;;;;12.98;9.50;;;11.10;99.90;;;;;;5038799;28;20127;-40
2023/09/26 03:47:14;;;;;;;14.82;9.38;;;11.20;99.90;;;;;;5046415;28;20036;-42
2023/09/26 03:49:41;;;;;;;10.82;9.25;;;11.30;99.90;;;;;;5047219;28;20044;-40
2023/09/26 03:52:08;;;;;;;13.95;8.98;;;11.30;99.90;;;;;;5053750;28;20056;-39
2023/09/26 03:54:36;;;;;;;11.27;8.73;;;11.50;99.90;;;;;;5048421;28;20048;-43
2023/09/26 03:57:04;;;;;;;11.82;9.15;;;11.50;99.90;;;;;;5046839;28;20084;-39
2023/09/26 03:59:33;;;;;;;16.65;10.35;;;11.50;99.90;;;;;;5048692;28;20049;-40
2023/09/26 04:02:00;;;;;;;12.90;10.20;;;11.60;99.90;;;;;;5056554;28;20048;-39
2023/09/26 04:04:29;;;;;;;13.35;10.40;;;11.60;99.90;;;;;;5057036;28;20041;-40
2023/09/26 04:06:56;;;;;;;13.98;10.57;;;11.60;99.90;;;;;;5054622;28;20411;-41
2023/09/26 04:09:24;;;;;;;12.55;9.02;;;11.70;99.90;;;;;;5053183;28;20052;-38
2023/09/26 04:11:51;;;;;;;11.88;9.63;;;11.80;99.90;;;;;;5052070;28;20148;-39
2023/09/26 04:14:18;;;;;;;11.95;9.55;;;11.80;99.90;;;;;;5044641;28;20056;-41
2023/09/26 04:16:47;;;;;;;14.55;9.95;;;11.90;99.90;;;;;;5038505;28;20067;-41
2023/09/26 04:19:15;;;;;;;11.88;9.40;;;11.90;99.90;;;;;;5039299;28;20037;-41
2023/09/26 04:21:42;;;;;;;13.65;10.13;;;12.00;99.90;;;;;;5045104;28;20135;-39
2023/09/26 04:24:09;;;;;;;15.63;9.80;;;12.00;99.90;;;;;;5046544;28;20524;-39
2023/09/26 04:26:37;;;;;;;15.25;10.45;;;12.00;99.90;;;;;;5039279;28;20050;-42
2023/09/26 04:29:07;;;;;;;17.85;11.18;;;12.00;99.90;;;;;;5046546;28;20053;-38
2023/09/26 04:31:34;;;;;;;11.20;9.45;;;12.00;99.90;;;;;;5041385;28;20056;-38
2023/09/26 04:34:03;;;;;;;13.55;9.68;;;12.10;99.90;;;;;;5046269;28;20110;-41
2023/09/26 04:36:30;;;;;;;14.15;10.13;;;12.10;99.90;;;;;;5049424;28;20044;-39
2023/09/26 04:38:57;;;;;;;13.23;9.73;;;12.00;99.90;;;;;;5039605;28;20063;-39
2023/09/26 04:41:24;;;;;;;13.02;8.95;;;12.10;99.90;;;;;;5046005;28;20061;-39
2023/09/26 04:43:52;;;;;;;11.13;8.88;;;12.10;99.90;;;;;;5044905;28;20138;-38
2023/09/26 04:46:19;;;;;;;12.48;8.90;;;12.20;99.90;;;;;;5048983;28;20172;-40
2023/09/26 04:48:47;;;;;;;12.50;8.50;;;12.20;99.90;;;;;;5040407;28;20052;-39
2023/09/26 04:51:14;;;;;;;13.25;9.00;;;12.20;99.90;;;;;;5046870;28;20038;-40
2023/09/26 04:53:42;;;;;;;11.23;8.57;;;12.20;99.90;;;;;;5045796;28;20064;-40
2023/09/26 04:56:10;;;;;;;12.48;8.13;;;12.30;99.90;;;;;;5046202;28;20077;-38
2023/09/26 04:58:38;;;;;;;11.57;8.50;;;12.30;99.90;;;;;;5044348;28;20041;-37
2023/09/26 05:01:13;;;;;;;10.30;8.85;;;12.30;99.90;;;;;;5046024;28;20059;-37
2023/09/26 05:03:42;;;;;;;14.45;9.07;;;12.30;99.90;;;;;;5048383;28;20053;-38
2023/09/26 05:06:10;;;;;;;15.07;9.57;;;12.40;99.90;;;;;;5041484;28;20133;-39
2023/09/26 05:08:39;;;;;;;10.18;8.40;;;12.40;99.90;;;;;;5042133;28;20059;-38
2023/09/26 05:11:06;;;;;;;11.02;9.23;;;12.50;99.90;;;;;;5033936;28;20669;-41
2023/09/26 05:13:33;;;;;;;10.82;8.23;;;12.50;99.90;;;;;;5049765;28;20049;-38
2023/09/26 05:16:01;;;;;;;10.15;8.38;;;12.50;99.90;;;;;;5036241;28;20057;-37
2023/09/26 05:18:28;;;;;;;10.45;8.52;;;12.60;99.90;;;;;;5047345;28;20045;-39
2023/09/26 05:20:56;;;;;;;17.02;8.38;;;12.60;99.90;;;;;;5033254;28;20132;-38
2023/09/26 05:23:23;;;;;;;10.48;7.90;;;12.70;99.90;;;;;;5048647;28;20048;-38
2023/09/26 05:25:51;;;;;;;11.07;7.60;;;12.70;99.90;;;;;;5042409;28;20072;-39
2023/09/26 05:28:18;;;;;;;11.85;8.48;;;12.80;99.90;;;;;;5053900;28;20049;-37
2023/09/26 05:30:45;;;;;;;13.35;8.52;;;12.80;99.90;;;;;;5038013;28;20033;-39
2023/09/26 05:33:13;;;;;;;10.88;7.93;;;12.80;99.90;;;;;;5036358;28;20053;-40
2023/09/26 05:35:40;;;;;;;13.68;7.32;;;12.80;99.90;;;;;;5051158;28;20041;-38
2023/09/26 05:38:08;;;;;;;13.88;8.60;;;12.80;99.90;;;;;;5040235;28;20041;-39
2023/09/26 05:40:35;;;;;;;12.73;7.85;;;12.90;99.90;;;;;;5041268;28;20493;-40
2023/09/26 05:43:02;;;;;;;13.43;9.80;;;12.80;99.90;;;;;;5037342;28;20115;-37
2023/09/26 05:45:30;;;;;;;12.88;8.07;;;12.80;99.90;;;;;;5042591;28;20094;-41
2023/09/26 05:47:57;;;;;;;10.57;8.60;;;12.90;99.90;;;;;;5043005;28;20041;-38
2023/09/26 05:50:24;;;;;;;11.05;8.75;;;13.00;99.90;;;;;;5052352;28;20045;-38
2023/09/26 05:52:52;;;;;;;11.10;8.40;;;13.00;99.90;;;;;;5052441;28;20418;-40
2023/09/26 05:55:19;;;;;;;14.52;8.10;;;13.10;99.90;;;;;;5039839;28;20045;-38
2023/09/26 05:57:46;;;;;;;31.17;9.23;;;13.20;99.90;;;;;;5040877;28;20053;-39
2023/09/26 06:00:15;;;;;;;24.05;9.75;;;13.30;99.90;;;;;;5035593;28;20057;-39
2023/09/26 06:02:43;;;;;;;12.30;8.48;;;13.40;99.90;;;;;;5055372;28;20045;-40
2023/09/26 06:05:13;;;;;;;12.35;8.23;;;13.50;99.90;;;;;;5054377;28;20037;-38
2023/09/26 06:07:41;;;;;;;12.07;7.13;;;13.60;99.90;;;;;;5047128;28;20053;-39
2023/09/26 06:10:11;;;;;;;11.30;7.90;;;13.70;99.90;;;;;;5057801;28;20041;-40
2023/09/26 06:12:39;;;;;;;10.65;7.28;;;13.80;99.90;;;;;;5041097;28;20046;-38
2023/09/26 06:15:07;;;;;;;11.48;7.68;;;13.80;99.90;;;;;;5056907;28;20033;-40
2023/09/26 06:17:35;;;;;;;11.85;7.70;;;13.90;99.90;;;;;;5047082;28;20060;-38
2023/09/26 06:20:08;;;;;;;13.10;7.07;;;13.90;99.90;;;;;;5047714;28;20068;-38
2023/09/26 06:22:35;;;;;;;10.65;7.72;;;14.00;99.90;;;;;;5037913;28;20039;-40
2023/09/26 06:25:04;;;;;;;12.40;7.70;;;14.10;99.90;;;;;;5039080;28;20453;-40
2023/09/26 06:27:34;;;;;;;10.27;7.57;;;14.20;99.90;;;;;;5039470;28;20119;-40
2023/09/26 06:30:04;;;;;;;14.25;7.82;;;14.40;99.90;;;;;;5044092;28;20068;-40
2023/09/26 06:32:34;;;;;;;15.35;8.55;;;14.50;99.90;;;;;;5059714;28;20126;-40
2023/09/26 06:35:01;;;;;;;11.75;8.30;;;14.60;99.90;;;;;;5046841;28;20137;-40
2023/09/26 06:37:28;;;;;;;11.90;7.35;;;14.60;99.90;;;;;;5041678;28;20768;-41
2023/09/26 06:40:00;;;;;;;12.23;8.27;;;14.80;99.90;;;;;;5037188;28;20053;-39
2023/09/26 06:42:27;;;;;;;12.93;8.73;;;14.80;99.90;;;;;;5049852;28;20107;-43
2023/09/26 06:44:55;;;;;;;9.57;8.30;;;14.90;99.90;;;;;;5040095;28;20390;-39
2023/09/26 06:47:22;;;;;;;13.20;8.43;;;14.90;99.90;;;;;;5049016;28;20049;-39
2023/09/26 06:49:50;;;;;;;10.55;7.22;;;15.00;99.90;;;;;;5039959;28;20041;-40
2023/09/26 06:52:18;;;;;;;11.65;7.63;;;15.20;99.90;;;;;;5044346;28;20067;-39
2023/09/26 06:54:45;;;;;;;10.88;7.47;;;15.30;99.90;;;;;;5040857;28;20052;-42
2023/09/26 06:57:17;;;;;;;13.23;8.30;;;15.40;99.90;;;;;;5044549;28;20111;-41
2023/09/26 06:59:49;;;;;;;18.88;8.52;;;15.50;99.90;;;;;;5040000;28;20069;-41
2023/09/26 07:02:17;;;;;;;18.95;9.65;;;15.50;99.90;;;;;;5034028;28;20095;-38
2023/09/26 07:04:46;;;;;;;20.10;11.98;;;15.40;99.90;;;;;;5043659;28;20065;-41
2023/09/26 07:07:14;;;;;;;15.25;10.05;;;15.50;99.90;;;;;;5034226;28;20159;-37
2023/09/26 07:09:43;;;;;;;15.65;9.27;;;15.60;99.90;;;;;;5047521;28;20468;-41
2023/09/26 07:12:11;;;;;;;15.10;9.25;;;15.70;99.90;;;;;;5041761;28;20079;-41
2023/09/26 07:14:38;;;;;;;16.67;9.55;;;15.80;99.90;;;;;;5043065;28;20091;-40
2023/09/26 07:17:07;;;;;;;20.02;9.48;;;15.90;99.90;;;;;;5040769;28;20046;-37
2023/09/26 07:19:35;;;;;;;15.73;8.48;;;16.00;99.90;;;;;;5043820;28;20063;-38
2023/09/26 07:22:02;;;;;;;15.60;8.75;;;16.10;99.90;;;;;;5039518;28;20056;-38
2023/09/26 07:24:29;;;;;;;22.45;9.32;;;16.30;99.90;;;;;;5051418;28;20037;-38
2023/09/26 07:27:16;;;;;;;12.80;8.45;;;16.30;99.90;;;;;;5051795;28;20034;-38
2023/09/26 07:29:46;;;;;;;20.25;8.70;;;16.40;99.90;;;;;;5042287;28;20790;-38
2023/09/26 07:32:15;;;;;;;12.77;9.33;;;16.60;99.90;;;;;;5039541;28;20178;-42
2023/09/26 07:34:43;;;;;;;11.70;7.95;;;16.70;99.90;;;;;;5037533;28;20057;-41
2023/09/26 07:37:11;;;;;;;12.57;7.95;;;16.80;99.90;;;;;;5035545;28;20042;-40
2023/09/26 07:39:41;;;;;;;11.93;8.20;;;16.90;99.90;;;;;;5034986;28;20081;-41
2023/09/26 07:42:08;;;;;;;9.98;8.27;;;17.00;99.90;;;;;;5045507;28;20597;-41
2023/09/26 07:44:36;;;;;;;10.90;8.18;;;17.20;99.90;;;;;;5033578;28;20064;-41
2023/09/26 07:47:03;;;;;;;9.73;7.65;;;17.30;99.90;;;;;;5040829;28;20104;-40
2023/09/26 07:49:30;;;;;;;14.73;8.57;;;17.40;99.90;;;;;;5043260;28;20131;-38
2023/09/26 07:51:58;;;;;;;11.70;8.48;;;17.40;99.90;;;;;;5038823;28;20081;-40
2023/09/26 07:54:25;;;;;;;13.25;10.48;;;17.40;99.90;;;;;;5048828;28;20045;-38
2023/09/26 07:56:52;;;;;;;13.93;11.65;;;17.50;99.90;;;;;;5040709;28;20060;-41
2023/09/26 07:59:21;;;;;;;13.88;9.63;;;17.60;99.90;;;;;;5048400;28;20048;-38
2023/09/26 08:01:49;;;;;;;13.75;10.00;;;17.70;99.90;;;;;;5049799;28;20135;-38
2023/09/26 08:04:16;;;;;;;10.27;9.02;;;17.80;99.90;;;;;;5046517;28;20086;-38
2023/09/26 08:06:45;;;;;;;13.52;10.68;;;18.10;99.90;;;;;;5039664;28;20132;-42
2023/09/26 08:09:12;;;;;;;16.45;9.90;;;18.30;99.90;;;;;;5047184;28;20107;-40
2023/09/26 08:11:42;;;;;;;16.88;11.18;;;18.50;99.90;;;;;;5035044;28;20564;-42
2023/09/26 08:14:10;;;;;;;14.82;9.27;;;18.40;99.90;;;;;;5039141;28;20495;-41
2023/09/26 08:16:37;;;;;;;14.27;9.77;;;18.50;99.90;;;;;;5046513;28;20063;-41
2023/09/26 08:19:05;;;;;;;15.10;10.30;;;18.90;99.90;;;;;;5046179;28;20045;-43
2023/09/26 08:21:32;;;;;;;16.65;11.70;;;19.10;99.90;;;;;;5046248;28;20399;-38
2023/09/26 08:24:00;;;;;;;19.58;13.88;;;19.10;99.90;;;;;;5039546;28;20688;-39
2023/09/26 08:26:27;;;;;;;17.95;12.13;;;19.00;99.90;;;;;;5032064;28;20529;-39
2023/09/26 08:28:54;;;;;;;13.70;9.95;;;19.00;99.90;;;;;;5049705;28;20087;-38
2023/09/26 08:31:22;;;;;;;14.85;10.45;;;19.00;99.90;;;;;;5051530;28;20053;-39
2023/09/26 08:33:49;;;;;;;12.00;9.48;;;18.80;99.90;;;;;;5051401;28;20136;-40
2023/09/26 08:36:19;;;;;;;19.58;10.95;;;18.70;99.90;;;;;;5043654;28;20056;-38
2023/09/26 08:38:48;;;;;;;24.38;11.77;;;18.70;99.90;;;;;;5044086;28;20072;-41
2023/09/26 08:41:17;;;;;;;16.52;10.63;;;18.60;99.90;;;;;;5054202;28;20045;-39
2023/09/26 08:43:45;;;;;;;18.65;11.02;;;18.60;99.90;;;;;;5050338;28;20056;-41
2023/09/26 08:46:13;;;;;;;12.68;10.20;;;18.50;99.90;;;;;;5041913;28;20046;-42
2023/09/26 08:48:42;;;;;;;13.30;10.00;;;18.50;99.90;;;;;;5039197;28;20045;-38
2023/09/26 08:51:10;;;;;;;12.80;10.82;;;18.50;99.90;;;;;;5047746;28;20042;-40
2023/09/26 08:53:37;;;;;;;14.85;10.98;;;18.30;99.90;;;;;;5053563;28;20083;-39
2023/09/26 08:56:05;;;;;;;14.63;10.50;;;18.30;99.90;;;;;;5043862;28;20103;-41
2023/09/26 08:58:33;;;;;;;14.65;11.07;;;18.40;99.90;;;;;;5048968;28;20064;-42
2023/09/26 09:01:02;;;;;;;13.65;11.15;;;18.60;99.90;;;;;;5049696;28;20128;-43
2023/09/26 09:03:30;;;;;;;12.52;9.85;;;18.60;99.90;;;;;;5052899;28;20056;-40
2023/09/26 09:05:58;;;;;;;11.70;9.27;;;18.70;99.90;;;;;;5063809;28;20049;-39
2023/09/26 09:08:25;;;;;;;13.75;10.02;;;18.80;99.90;;;;;;5059484;28;20047;-41
2023/09/26 09:10:55;;;;;;;17.90;10.20;;;18.90;99.90;;;;;;5061642;28;20052;-36
2023/09/26 09:13:33;;;;;;;12.48;9.68;;;19.00;99.90;;;;;;5040587;28;20506;-41
2023/09/26 09:16:13;;;;;;;12.30;9.90;;;19.10;99.90;;;;;;5039497;28;20492;-41
2023/09/26 09:18:46;;;;;;;13.77;9.02;;;19.20;99.90;;;;;;5046569;28;20102;-38
2023/09/26 09:21:19;;;;;;;13.02;9.60;;;19.40;99.90;;;;;;5051687;28;20051;-39
2023/09/26 09:23:51;;;;;;;13.02;9.52;;;19.50;99.90;;;;;;5044029;28;20128;-38
2023/09/26 09:26:21;;;;;;;16.05;10.63;;;19.60;99.90;;;;;;5051173;28;20045;-40
2023/09/26 09:28:52;;;;;;;11.32;9.35;;;19.60;99.90;;;;;;5051446;28;20052;-39
2023/09/26 09:31:22;;;;;;;10.55;9.45;;;19.70;99.90;;;;;;5052251;28;20721;-41
2023/09/26 09:33:56;;;;;;;11.77;9.30;;;19.90;99.90;;;;;;5051863;28;20603;-39
2023/09/26 09:36:23;;;;;;;12.45;10.82;;;19.90;99.90;;;;;;5046073;28;20059;-42
2023/09/26 09:38:51;;;;;;;15.30;11.38;;;20.10;99.90;;;;;;5047369;28;20072;-40
2023/09/26 09:41:19;;;;;;;10.73;9.35;;;20.20;99.90;;;;;;5044829;28;20063;-42
2023/09/26 09:43:46;;;;;;;9.30;7.88;;;20.40;99.90;;;;;;5054652;28;20033;-42
2023/09/26 09:46:16;;;;;;;12.38;9.30;;;20.50;99.90;;;;;;5063938;28;20048;-41
2023/09/26 09:48:46;;;;;;;13.65;9.10;;;20.70;99.90;;;;;;5063727;28;20061;-42
2023/09/26 09:51:14;;;;;;;11.35;9.27;;;20.70;99.90;;;;;;5057536;28;20107;-39
2023/09/26 09:53:43;;;;;;;11.60;8.98;;;20.80;99.90;;;;;;5045293;28;20072;-41
2023/09/26 09:56:18;;;;;;;10.13;9.02;;;21.00;99.90;;;;;;5045518;28;20044;-41
2023/09/26 09:58:50;;;;;;;10.07;8.07;;;21.10;99.90;;;;;;5046508;28;20045;-41
2023/09/26 10:01:22;;;;;;;11.13;9.10;;;21.30;99.90;;;;;;5046182;28;20788;-41
2023/09/26 10:03:51;;;;;;;11.70;8.55;;;21.50;99.90;;;;;;5042981;28;20087;-38
2023/09/26 10:06:20;;;;;;;9.25;8.13;;;21.60;99.90;;;;;;5044270;28;20052;-37
2023/09/26 10:08:50;;;;;;;9.50;8.50;;;21.80;99.90;;;;;;5038932;28;20059;-38
2023/09/26 10:11:19;;;;;;;10.60;9.60;;;22.00;99.90;;;;;;5039435;28;20063;-40
2023/09/26 10:13:50;;;;;;;12.50;9.57;;;21.60;99.90;;;;;;5043135;28;20061;-40
2023/09/26 10:16:19;;;;;;;10.47;8.90;;;21.70;99.90;;;;;;5054797;28;20049;-40
2023/09/26 10:18:49;;;;;;;8.57;7.75;;;21.90;99.90;;;;;;5053135;28;20056;-41
2023/09/26 10:21:22;;;;;;;9.30;8.10;;;22.00;99.90;;;;;;5042388;28;20459;-38
2023/09/26 10:24:08;;;;;;;9.77;8.75;;;22.40;99.90;;;;;;5052719;28;20041;-41
2023/09/26 10:26:43;;;;;;;10.93;8.40;;;22.50;99.90;;;;;;5047688;28;20460;-38
2023/09/26 10:29:14;;;;;;;8.68;7.88;;;22.60;99.90;;;;;;5059007;28;20064;-40
2023/09/26 10:31:53;;;;;;;9.63;8.38;;;22.70;99.90;;;;;;5040210;28;20457;-38
2023/09/26 10:34:27;;;;;;;8.55;7.15;;;23.00;99.90;;;;;;5049146;28;20072;-38
2023/09/26 10:37:20;;;;;;;9.35;8.07;;;23.20;99.90;;;;;;5039082;28;20103;-38
2023/09/26 10:40:17;;;;;;;9.15;7.50;;;23.50;99.90;;;;;;5040893;28;20045;-43
2023/09/26 10:42:49;;;;;;;12.57;8.40;;;23.90;99.90;;;;;;5050788;28;20115;-41
2023/09/26 10:45:19;;;;;;;9.63;8.20;;;24.10;99.90;;;;;;5040779;28;20043;-42
2023/09/26 10:47:46;;;;;;;11.02;7.63;;;24.40;99.90;;;;;;5047803;28;20056;-38
2023/09/26 10:50:34;;;;;;;8.30;7.50;;;24.70;99.90;;;;;;5039978;28;20107;-40
2023/09/26 10:53:02;;;;;;;9.82;7.15;;;24.90;99.90;;;;;;5035077;28;20087;-38
2023/09/26 10:55:31;;;;;;;7.40;6.70;;;25.20;99.90;;;;;;5041751;28;20424;-41
2023/09/26 10:57:59;;;;;;;8.57;7.55;;;25.40;99.90;;;;;;5045816;28;20052;-42
2023/09/26 11:00:27;;;;;;;8.07;7.03;;;25.70;99.90;;;;;;5052398;28;20041;-41
2023/09/26 11:02:55;;;;;;;9.98;7.45;;;26.00;99.90;;;;;;5059680;28;20060;-40
2023/09/26 11:05:30;;;;;;;7.80;7.10;;;26.10;99.90;;;;;;5051348;28;20068;-41
2023/09/26 11:07:58;;;;;;;9.20;7.32;;;26.20;99.90;;;;;;5051240;28;20049;-41
2023/09/26 11:10:25;;;;;;;9.77;7.22;;;26.20;99.90;;;;;;5034919;28;20050;-43
2023/09/26 11:12:53;;;;;;;8.80;8.00;;;26.20;99.90;;;;;;5040771;28;20368;-40
2023/09/26 11:15:20;;;;;;;8.85;7.70;;;26.50;99.90;;;;;;5036307;28;20044;-43
2023/09/26 11:17:49;;;;;;;8.65;7.72;;;26.80;99.90;;;;;;5038658;28;20570;-38
2023/09/26 11:20:17;;;;;;;8.60;7.70;;;27.00;99.90;;;;;;5037950;28;20131;-41
2023/09/26 11:22:51;;;;;;;10.82;7.93;;;27.30;99.90;;;;;;5044599;28;20041;-42
2023/09/26 11:25:18;;;;;;;8.15;7.20;;;27.60;99.90;;;;;;5035231;28;20137;-41
2023/09/26 11:27:47;;;;;;;8.88;7.53;;;27.70;99.90;;;;;;5047790;28;20037;-40
2023/09/26 11:30:17;;;;;;;9.77;8.85;;;27.80;99.90;;;;;;5040921;28;20054;-42
2023/09/26 11:32:48;;;;;;;13.70;9.00;;;28.10;99.90;;;;;;5046554;28;20049;-41
2023/09/26 11:35:18;;;;;;;10.48;7.68;;;28.20;99.90;;;;;;5039900;28;20445;-41
2023/09/26 11:37:53;;;;;;;8.93;8.07;;;28.30;99.90;;;;;;5042465;28;20459;-42
2023/09/26 11:40:24;;;;;;;10.00;8.10;;;28.40;99.90;;;;;;5029136;28;20045;-41
2023/09/26 11:42:55;;;;;;;9.40;7.93;;;28.60;99.90;;;;;;5050593;28;20057;-40
2023/09/26 11:45:24;;;;;;;8.18;7.38;;;28.80;99.90;;;;;;5037868;28;20132;-42
2023/09/26 11:47:58;;;;;;;8.05;7.25;;;28.60;99.90;;;;;;5044151;28;20051;-41
2023/09/26 11:50:28;;;;;;;8.55;7.75;;;29.10;99.90;;;;;;5041328;28;20152;-41
2023/09/26 11:53:02;;;;;;;8.93;7.63;;;29.40;99.90;;;;;;5032651;28;20051;-40
2023/09/26 11:55:30;;;;;;;7.80;7.10;;;29.60;99.90;;;;;;5047433;28;20053;-40
2023/09/26 11:57:59;;;;;;;8.65;7.47;;;29.60;99.90;;;;;;5040500;28;20057;-40
2023/09/26 12:00:26;;;;;;;11.23;8.02;;;29.60;99.90;;;;;;5051260;28;20050;-43
2023/09/26 12:02:56;;;;;;;8.27;7.50;;;29.40;99.90;;;;;;5050438;28;20099;-43
2023/09/26 12:05:23;;;;;;;8.77;7.55;;;29.60;99.90;;;;;;5045975;28;20050;-39
2023/09/26 12:07:51;;;;;;;9.48;7.53;;;30.00;99.90;;;;;;5039321;28;20053;-41
2023/09/26 12:10:19;;;;;;;8.20;7.47;;;30.20;99.90;;;;;;5041934;28;20052;-38
2023/09/26 12:12:47;;;;;;;8.65;7.57;;;30.50;99.90;;;;;;5038581;28;20061;-38
2023/09/26 12:15:22;;;;;;;9.93;7.38;;;30.60;99.90;;;;;;5039976;28;20142;-42
2023/09/26 12:17:51;;;;;;;8.50;7.55;;;31.10;99.90;;;;;;5037980;28;20124;-41
2023/09/26 12:20:24;;;;;;;8.50;7.70;;;31.80;99.90;;;;;;5033319;28;20053;-39
2023/09/26 12:22:54;;;;;;;7.90;7.15;;;32.00;99.90;;;;;;5038923;28;20049;-38
2023/09/26 12:25:23;;;;;;;7.97;7.25;;;32.40;99.40;;;;;;5042604;28;20128;-38
2023/09/26 12:27:52;;;;;;;9.52;7.40;;;32.50;98.50;;;;;;5044038;28;20045;-40
2023/09/26 12:30:20;;;;;;;8.85;8.00;;;32.50;97.60;;;;;;5026586;28;20478;-41
2023/09/26 12:32:49;;;;;;;8.13;7.25;;;32.40;97.50;;;;;;5040370;28;20041;-41
2023/09/26 12:35:17;;;;;;;9.20;8.32;;;33.00;96.40;;;;;;5033863;28;20049;-39
2023/09/26 12:37:45;;;;;;;8.90;8.10;;;33.30;94.80;;;;;;5044540;28;20525;-41
2023/09/26 12:40:14;;;;;;;8.90;8.10;;;33.20;94.40;;;;;;5032061;28;20053;-39
2023/09/26 12:42:42;;;;;;;8.90;8.02;;;33.10;94.50;;;;;;5041535;28;20053;-41
2023/09/26 12:45:10;;;;;;;7.90;7.30;;;33.60;93.20;;;;;;5043485;28;20107;-39